Time;durP1;ratioP1;P1;durP2;ratioP2;P2;SDS_P1;SDS_P2;PMS_P1;PMS_P2;Temp;Humidity;BMP_temperature;BMP_pressure;BME280_temperature;BME280_humidity;BME280_pressure;Samples;Min_cycle;Max_cycle;Signal;HPM_P1;HPM_P2
2021/08/06 00:01:11;;;;;;;0.57;0.57;;;17.40;99.90;;;;;;4374476;32;20090;-63
2021/08/06 00:03:36;;;;;;;0.60;0.60;;;17.50;99.90;;;;;;4372684;32;20516;-62
2021/08/06 00:06:03;;;;;;;0.40;0.40;;;17.50;99.90;;;;;;4374448;32;20114;-63
2021/08/06 00:08:28;;;;;;;0.40;0.40;;;17.50;99.90;;;;;;4373750;32;20070;-62
2021/08/06 00:10:54;;;;;;;0.40;0.40;;;17.50;99.90;;;;;;4385554;32;20071;-62
2021/08/06 00:13:20;;;;;;;0.50;0.50;;;17.60;99.90;;;;;;4389027;32;20082;-62
2021/08/06 00:15:45;;;;;;;0.40;0.40;;;17.50;99.90;;;;;;4391538;32;20069;-62
2021/08/06 00:18:11;;;;;;;0.60;0.60;;;17.60;99.90;;;;;;4387145;32;20070;-61
2021/08/06 00:20:36;;;;;;;0.40;0.40;;;17.60;99.90;;;;;;4391632;32;20114;-64
2021/08/06 00:23:04;;;;;;;0.45;0.45;;;17.60;99.90;;;;;;4389260;32;20550;-62
2021/08/06 00:25:30;;;;;;;0.43;0.43;;;17.40;99.90;;;;;;4389557;32;20066;-62
2021/08/06 00:27:55;;;;;;;0.57;0.57;;;17.30;99.90;;;;;;4389715;32;20073;-63
2021/08/06 00:30:21;;;;;;;2.30;0.70;;;17.30;99.90;;;;;;4389196;32;20130;-62
2021/08/06 00:32:46;;;;;;;2.42;0.90;;;17.30;99.90;;;;;;4378657;32;20078;-62
2021/08/06 00:35:12;;;;;;;0.40;0.40;;;17.40;99.90;;;;;;4389424;32;20070;-63
2021/08/06 00:37:37;;;;;;;0.40;0.40;;;17.50;99.90;;;;;;4389953;32;20083;-62
2021/08/06 00:40:04;;;;;;;2.10;1.12;;;17.40;99.90;;;;;;4394827;32;20166;-62
2021/08/06 00:42:29;;;;;;;0.50;0.50;;;17.40;99.90;;;;;;4375809;32;20090;-62
2021/08/06 00:44:54;;;;;;;0.50;0.50;;;17.30;99.90;;;;;;4390989;32;20109;-63
2021/08/06 00:47:20;;;;;;;0.50;0.50;;;17.30;99.90;;;;;;4388144;32;20082;-61
2021/08/06 00:49:46;;;;;;;0.65;0.65;;;17.30;99.90;;;;;;4389499;32;20131;-61
2021/08/06 00:52:13;;;;;;;0.40;0.40;;;17.30;99.90;;;;;;4388467;32;20116;-61
2021/08/06 00:54:38;;;;;;;0.47;0.47;;;17.30;99.90;;;;;;4375645;32;20074;-62
2021/08/06 00:57:04;;;;;;;0.40;0.40;;;17.30;99.90;;;;;;4389683;32;20083;-63
2021/08/06 00:59:30;;;;;;;2.15;0.60;;;17.40;99.90;;;;;;4388175;32;20546;-61
2021/08/06 01:02:06;;;;;;;0.70;0.60;;;17.40;99.90;;;;;;4390019;32;20094;-62
2021/08/06 01:04:43;;;;;;;0.55;0.35;;;17.40;99.90;;;;;;4389703;32;20079;-63
2021/08/06 01:07:19;;;;;;;0.65;0.62;;;17.30;99.90;;;;;;4389010;32;20141;-61
2021/08/06 01:09:52;;;;;;;0.65;0.65;;;17.20;99.90;;;;;;4390033;32;20067;-61
2021/08/06 01:12:28;;;;;;;0.62;0.60;;;17.20;99.90;;;;;;4388353;32;20071;-62
2021/08/06 01:14:58;;;;;;;0.60;0.60;;;17.20;99.90;;;;;;4375354;32;20063;-62
2021/08/06 01:17:25;;;;;;;0.47;0.47;;;17.20;99.90;;;;;;4376735;32;20071;-63
2021/08/06 01:20:12;;;;;;;0.50;0.50;;;17.20;99.90;;;;;;4388604;32;20448;-62
2021/08/06 01:22:44;;;;;;;0.62;0.62;;;17.20;99.90;;;;;;4374329;32;20070;-64
2021/08/06 01:25:31;;;;;;;0.30;0.30;;;17.20;99.90;;;;;;4382780;32;20074;-61
2021/08/06 01:27:57;;;;;;;0.77;0.70;;;17.30;99.90;;;;;;4378122;32;20077;-64
2021/08/06 01:30:23;;;;;;;1.55;0.82;;;17.30;99.90;;;;;;4390654;32;20518;-63
2021/08/06 01:32:48;;;;;;;0.50;0.50;;;17.40;99.90;;;;;;4376828;32;20117;-63
2021/08/06 01:35:14;;;;;;;0.45;0.45;;;17.30;99.90;;;;;;4390057;32;20406;-62
2021/08/06 01:37:39;;;;;;;0.40;0.40;;;17.30;99.90;;;;;;4386999;32;20070;-63
2021/08/06 01:40:07;;;;;;;0.40;0.40;;;17.30;99.90;;;;;;4393802;32;20066;-63
2021/08/06 01:42:57;;;;;;;0.57;0.57;;;17.30;99.90;;;;;;4391318;32;20409;-63
2021/08/06 01:45:26;;;;;;;1.17;0.93;;;17.40;99.90;;;;;;4363781;32;20127;-63
2021/08/06 01:47:53;;;;;;;0.43;0.40;;;17.40;99.90;;;;;;4375304;32;20067;-62
2021/08/06 01:50:25;;;;;;;0.47;0.47;;;17.40;99.90;;;;;;4374124;32;20074;-62
2021/08/06 01:52:59;;;;;;;0.45;0.45;;;17.30;99.90;;;;;;4389736;32;20078;-63
2021/08/06 01:55:35;;;;;;;1.85;0.60;;;17.30;99.90;;;;;;4386648;32;20074;-62
2021/08/06 01:58:02;;;;;;;1.02;0.82;;;17.40;99.90;;;;;;4391008;32;20070;-63
2021/08/06 02:00:29;;;;;;;0.50;0.50;;;17.40;99.90;;;;;;4388386;32;20062;-63
2021/08/06 02:02:54;;;;;;;6.12;1.65;;;17.30;99.90;;;;;;4390212;32;20082;-63
2021/08/06 02:05:22;;;;;;;0.55;0.50;;;17.30;99.90;;;;;;4387716;32;20500;-64
2021/08/06 02:07:48;;;;;;;1.20;0.62;;;17.20;99.90;;;;;;4390836;32;20126;-64
2021/08/06 02:10:15;;;;;;;0.55;0.55;;;17.20;99.90;;;;;;4370396;32;20079;-63
2021/08/06 02:12:42;;;;;;;1.45;0.70;;;17.10;99.90;;;;;;4372435;32;20081;-63
2021/08/06 02:15:09;;;;;;;0.50;0.50;;;17.10;99.90;;;;;;4374473;32;20079;-63
2021/08/06 02:17:36;;;;;;;0.60;0.60;;;17.10;99.90;;;;;;4371864;32;20075;-63
2021/08/06 02:20:04;;;;;;;0.47;0.47;;;17.20;99.90;;;;;;4373080;32;20083;-64
2021/08/06 02:22:31;;;;;;;0.40;0.40;;;17.30;99.90;;;;;;4373187;32;20118;-63
2021/08/06 02:24:57;;;;;;;0.45;0.45;;;17.30;99.90;;;;;;4373514;32;20062;-62
2021/08/06 02:27:23;;;;;;;1.08;0.80;;;17.30;99.90;;;;;;4372271;32;20075;-62
2021/08/06 02:29:53;;;;;;;2.28;0.65;;;17.20;99.90;;;;;;4374115;32;20062;-63
2021/08/06 02:32:19;;;;;;;0.43;0.43;;;17.20;99.90;;;;;;4372110;32;20074;-62
2021/08/06 02:34:44;;;;;;;0.50;0.50;;;17.10;99.90;;;;;;4374427;32;20075;-64
2021/08/06 02:37:10;;;;;;;0.65;0.65;;;17.10;99.90;;;;;;4373646;32;20067;-62
2021/08/06 02:39:35;;;;;;;0.85;0.70;;;17.10;99.90;;;;;;4375517;32;20540;-62
2021/08/06 02:42:03;;;;;;;0.50;0.50;;;17.00;99.90;;;;;;4373425;32;20117;-63
2021/08/06 02:44:28;;;;;;;0.65;0.65;;;17.00;99.90;;;;;;4373104;32;20071;-64
2021/08/06 02:46:54;;;;;;;0.30;0.30;;;16.90;99.90;;;;;;4372867;32;20079;-63
2021/08/06 02:49:19;;;;;;;1.15;1.10;;;16.80;99.90;;;;;;4371633;32;20115;-62
2021/08/06 02:51:45;;;;;;;1.87;0.60;;;16.80;99.90;;;;;;4374395;32;20503;-63
2021/08/06 02:54:11;;;;;;;0.57;0.57;;;16.80;99.90;;;;;;4372724;32;20070;-62
2021/08/06 02:56:36;;;;;;;0.47;0.43;;;16.80;99.90;;;;;;4373040;32;20095;-62
2021/08/06 02:59:02;;;;;;;0.52;0.50;;;16.80;99.90;;;;;;4373771;32;20575;-63
2021/08/06 03:01:28;;;;;;;1.25;0.82;;;16.70;99.90;;;;;;4371844;32;20066;-62
2021/08/06 03:03:53;;;;;;;0.47;0.47;;;16.60;99.90;;;;;;4374140;32;20054;-63
2021/08/06 03:06:19;;;;;;;0.95;0.60;;;16.70;99.90;;;;;;4372607;32;20087;-63
2021/08/06 03:08:44;;;;;;;0.70;0.70;;;16.70;99.90;;;;;;4374097;32;20544;-62
2021/08/06 03:11:09;;;;;;;0.50;0.50;;;16.80;99.90;;;;;;4383099;32;20073;-63
2021/08/06 03:13:35;;;;;;;1.37;0.47;;;16.80;99.90;;;;;;4374194;32;20082;-63
2021/08/06 03:16:00;;;;;;;0.40;0.40;;;16.90;99.90;;;;;;4388401;32;20421;-62
2021/08/06 03:18:26;;;;;;;0.52;0.52;;;16.80;99.90;;;;;;4389602;32;20070;-63
2021/08/06 03:20:52;;;;;;;1.90;0.70;;;16.80;99.90;;;;;;4388622;32;20137;-62
2021/08/06 03:23:17;;;;;;;6.32;1.60;;;16.70;99.90;;;;;;4373865;32;20062;-62
2021/08/06 03:25:43;;;;;;;0.60;0.60;;;16.50;99.90;;;;;;4382018;32;20070;-64
2021/08/06 03:28:08;;;;;;;0.55;0.55;;;16.50;99.90;;;;;;4388023;32;20490;-62
2021/08/06 03:30:34;;;;;;;1.05;0.90;;;16.60;99.90;;;;;;4386998;32;20074;-61
2021/08/06 03:32:59;;;;;;;1.20;0.80;;;16.60;99.90;;;;;;4390235;32;20062;-62
2021/08/06 03:35:25;;;;;;;2.22;0.70;;;16.60;99.90;;;;;;4387461;32;20075;-63
2021/08/06 03:37:51;;;;;;;1.85;0.80;;;16.70;99.90;;;;;;4388760;32;20075;-62
2021/08/06 03:40:17;;;;;;;1.37;0.70;;;16.60;99.90;;;;;;4391164;32;20121;-62
2021/08/06 03:42:42;;;;;;;0.77;0.57;;;16.50;99.90;;;;;;4372333;32;20066;-63
2021/08/06 03:45:08;;;;;;;2.05;0.90;;;16.40;99.90;;;;;;4375876;32;20125;-63
2021/08/06 03:47:35;;;;;;;1.60;0.98;;;16.30;99.90;;;;;;4389654;32;20074;-62
2021/08/06 03:50:01;;;;;;;0.93;0.75;;;16.30;99.90;;;;;;4382616;32;20125;-62
2021/08/06 03:52:26;;;;;;;0.60;0.60;;;16.30;99.90;;;;;;4390016;32;20366;-63
2021/08/06 03:54:52;;;;;;;0.68;0.68;;;16.30;99.90;;;;;;4390911;32;20426;-62
2021/08/06 03:57:17;;;;;;;0.57;0.47;;;16.40;99.90;;;;;;4390062;32;20133;-64
2021/08/06 03:59:43;;;;;;;0.62;0.62;;;16.40;99.90;;;;;;4374073;32;20515;-62
2021/08/06 04:02:08;;;;;;;0.65;0.60;;;16.40;99.90;;;;;;4389013;32;20078;-61
2021/08/06 04:04:34;;;;;;;1.10;0.73;;;16.40;99.90;;;;;;4389599;32;20519;-63
2021/08/06 04:06:59;;;;;;;27.27;3.00;;;16.40;99.90;;;;;;4391277;32;20436;-63
2021/08/06 04:09:25;;;;;;;0.62;0.50;;;16.40;99.90;;;;;;4389171;32;20070;-62
2021/08/06 04:11:50;;;;;;;3.83;0.68;;;16.50;99.90;;;;;;4390033;32;20091;-63
2021/08/06 04:14:16;;;;;;;1.73;1.02;;;16.50;99.90;;;;;;4388419;32;20067;-63
2021/08/06 04:16:41;;;;;;;1.15;1.05;;;16.40;99.90;;;;;;4387922;32;20062;-62
2021/08/06 04:19:07;;;;;;;3.83;0.75;;;16.30;99.90;;;;;;4389547;32;20061;-63
2021/08/06 04:21:32;;;;;;;0.68;0.68;;;16.40;99.90;;;;;;4389156;32;20067;-62
2021/08/06 04:23:58;;;;;;;1.20;0.70;;;16.40;99.90;;;;;;4390043;32;20082;-61
2021/08/06 04:26:23;;;;;;;0.68;0.68;;;16.20;99.90;;;;;;4375891;32;20074;-63
2021/08/06 04:28:49;;;;;;;4.57;1.70;;;16.30;99.90;;;;;;4389861;32;20562;-63
2021/08/06 04:31:14;;;;;;;3.47;1.08;;;16.30;99.90;;;;;;4373869;32;20563;-64
2021/08/06 04:33:40;;;;;;;0.60;0.60;;;16.30;99.90;;;;;;4391745;32;20137;-64
2021/08/06 04:36:05;;;;;;;13.45;1.10;;;16.40;99.90;;;;;;4388968;32;20114;-64
2021/08/06 04:38:31;;;;;;;0.60;0.60;;;16.50;99.90;;;;;;4375640;32;20073;-63
2021/08/06 04:40:56;;;;;;;0.68;0.65;;;16.60;99.90;;;;;;4394640;32;20452;-63
2021/08/06 04:43:22;;;;;;;0.75;0.70;;;16.60;99.90;;;;;;4388914;32;20070;-62
2021/08/06 04:45:48;;;;;;;0.40;0.40;;;16.60;99.90;;;;;;4390719;32;20347;-63
2021/08/06 04:48:22;;;;;;;0.50;0.50;;;16.60;99.90;;;;;;4373470;32;20434;-63
2021/08/06 04:50:49;;;;;;;0.55;0.55;;;16.70;99.90;;;;;;4392421;32;20062;-64
2021/08/06 04:53:15;;;;;;;0.40;0.40;;;16.80;99.90;;;;;;4379339;32;20082;-64
2021/08/06 04:55:41;;;;;;;1.17;1.08;;;16.90;99.90;;;;;;4383313;32;20078;-63
2021/08/06 04:58:06;;;;;;;0.73;0.70;;;16.90;99.90;;;;;;4390688;32;20125;-63
2021/08/06 05:00:32;;;;;;;0.77;0.77;;;16.80;99.90;;;;;;4381628;32;20450;-63
2021/08/06 05:02:58;;;;;;;2.37;1.02;;;16.70;99.90;;;;;;4391656;32;20070;-64
2021/08/06 05:05:23;;;;;;;0.70;0.70;;;16.70;99.90;;;;;;4385178;32;20062;-62
2021/08/06 05:07:51;;;;;;;0.82;0.62;;;16.70;99.90;;;;;;4389282;32;20083;-63
2021/08/06 05:10:18;;;;;;;0.70;0.70;;;16.70;99.90;;;;;;4388015;32;20468;-63
2021/08/06 05:12:44;;;;;;;0.60;0.60;;;16.80;99.90;;;;;;4374385;32;20082;-64
2021/08/06 05:15:09;;;;;;;0.60;0.60;;;16.70;99.90;;;;;;4390541;32;20178;-64
2021/08/06 05:17:35;;;;;;;1.08;1.00;;;16.70;99.90;;;;;;4372450;32;20078;-64
2021/08/06 05:20:01;;;;;;;3.05;0.82;;;16.80;99.90;;;;;;4387332;32;20058;-65
2021/08/06 05:22:27;;;;;;;1.10;0.65;;;16.70;99.90;;;;;;4387760;32;20073;-65
2021/08/06 05:24:52;;;;;;;3.28;1.25;;;16.70;99.90;;;;;;4387933;32;20163;-64
2021/08/06 05:27:18;;;;;;;0.50;0.50;;;16.70;99.90;;;;;;4386450;32;20078;-64
2021/08/06 05:29:43;;;;;;;1.05;0.88;;;16.70;99.90;;;;;;4388344;32;20120;-65
2021/08/06 05:32:09;;;;;;;1.98;1.40;;;16.70;99.90;;;;;;4374687;32;20467;-64
2021/08/06 05:34:34;;;;;;;0.93;0.93;;;16.80;99.90;;;;;;4388070;32;20493;-64
2021/08/06 05:37:00;;;;;;;6.18;0.80;;;16.90;99.90;;;;;;4388914;32;20078;-64
2021/08/06 05:39:25;;;;;;;1.12;0.60;;;17.10;99.90;;;;;;4387827;32;20075;-65
2021/08/06 05:41:51;;;;;;;0.47;0.47;;;17.00;99.90;;;;;;4389476;32;20536;-63
2021/08/06 05:44:16;;;;;;;0.73;0.57;;;17.10;99.90;;;;;;4389764;32;20094;-63
2021/08/06 05:46:42;;;;;;;0.82;0.60;;;17.10;99.90;;;;;;4387320;32;20491;-64
2021/08/06 05:49:07;;;;;;;0.52;0.52;;;17.20;99.90;;;;;;4388509;32;20066;-65
2021/08/06 05:51:32;;;;;;;0.50;0.50;;;17.30;99.90;;;;;;4373347;32;20075;-65
2021/08/06 05:54:01;;;;;;;0.75;0.75;;;17.40;99.90;;;;;;4390600;32;20136;-64
2021/08/06 05:56:27;;;;;;;1.12;0.60;;;17.40;99.90;;;;;;4390792;32;20434;-63
2021/08/06 05:58:52;;;;;;;1.98;0.80;;;17.50;99.90;;;;;;4376685;32;20398;-64
2021/08/06 06:01:17;;;;;;;5.68;0.98;;;17.50;99.90;;;;;;4379047;32;20070;-64
2021/08/06 06:03:43;;;;;;;0.70;0.60;;;17.50;99.90;;;;;;4390534;32;20070;-64
2021/08/06 06:06:08;;;;;;;1.12;1.00;;;17.40;99.90;;;;;;4387929;32;20081;-64
2021/08/06 06:08:34;;;;;;;0.47;0.47;;;17.40;99.90;;;;;;4389040;32;20118;-63
2021/08/06 06:10:59;;;;;;;0.55;0.45;;;17.50;99.90;;;;;;4388699;32;20073;-63
2021/08/06 06:13:25;;;;;;;0.43;0.43;;;17.60;99.90;;;;;;4389984;32;20417;-62
2021/08/06 06:15:50;;;;;;;0.70;0.70;;;17.80;99.90;;;;;;4391063;32;20065;-63
2021/08/06 06:18:16;;;;;;;0.70;0.70;;;17.90;99.90;;;;;;4386220;32;20335;-63
2021/08/06 06:20:41;;;;;;;4.47;0.60;;;17.90;99.90;;;;;;4387743;32;20094;-64
2021/08/06 06:23:07;;;;;;;1.05;0.90;;;18.00;99.90;;;;;;4402175;27;79511;-71
2021/08/06 06:25:33;;;;;;;0.90;0.90;;;18.20;99.90;;;;;;4388149;32;20535;-74
2021/08/06 06:28:02;;;;;;;0.70;0.70;;;18.20;99.90;;;;;;4388126;32;20063;-74
2021/08/06 06:30:29;;;;;;;0.40;0.40;;;18.20;99.90;;;;;;4388850;32;20070;-74
2021/08/06 06:32:56;;;;;;;0.52;0.52;;;18.20;99.90;;;;;;4390286;32;20398;-74
2021/08/06 06:35:22;;;;;;;0.45;0.45;;;18.30;99.90;;;;;;4387840;32;20579;-71
2021/08/06 06:37:48;;;;;;;0.77;0.77;;;18.20;99.90;;;;;;4390294;32;20090;-73
2021/08/06 06:40:15;;;;;;;1.42;1.20;;;18.20;99.90;;;;;;4391939;32;20058;-72
2021/08/06 06:42:40;;;;;;;0.95;0.88;;;18.20;99.90;;;;;;4388524;32;20078;-73
2021/08/06 06:45:06;;;;;;;0.73;0.50;;;18.10;99.90;;;;;;4387279;32;20090;-73
2021/08/06 06:47:37;;;;;;;1.23;1.08;;;18.20;99.90;;;;;;4388305;32;20062;-73
2021/08/06 06:50:04;;;;;;;0.90;0.73;;;18.30;99.90;;;;;;4385793;32;20131;-73
2021/08/06 06:52:29;;;;;;;0.55;0.55;;;18.30;99.90;;;;;;4386271;32;20515;-73
2021/08/06 06:54:55;;;;;;;0.70;0.70;;;18.30;99.90;;;;;;4390566;32;20066;-72
2021/08/06 06:57:20;;;;;;;0.50;0.50;;;18.30;99.90;;;;;;4391303;32;20062;-73
2021/08/06 06:59:46;;;;;;;1.30;0.80;;;18.40;99.90;;;;;;4390142;32;20544;-73
2021/08/06 07:02:11;;;;;;;0.73;0.60;;;18.40;99.90;;;;;;4386828;32;20078;-73
2021/08/06 07:04:36;;;;;;;0.60;0.60;;;18.50;99.90;;;;;;4391909;32;20081;-73
2021/08/06 07:07:02;;;;;;;0.60;0.60;;;18.60;99.90;;;;;;4389922;32;20102;-73
2021/08/06 07:09:28;;;;;;;0.90;0.75;;;18.70;99.90;;;;;;4391060;32;20087;-72
2021/08/06 07:11:53;;;;;;;1.35;0.70;;;18.90;99.90;;;;;;4386637;32;20146;-72
2021/08/06 07:14:18;;;;;;;1.02;0.65;;;19.10;99.90;;;;;;4388116;32;20471;-72
2021/08/06 07:16:44;;;;;;;0.50;0.50;;;19.20;99.90;;;;;;4392814;32;20406;-73
2021/08/06 07:19:09;;;;;;;0.62;0.62;;;19.30;99.90;;;;;;4396387;32;20440;-72
2021/08/06 07:21:35;;;;;;;1.27;1.17;;;19.40;99.90;;;;;;4396232;32;20098;-73
2021/08/06 07:24:00;;;;;;;0.88;0.40;;;19.50;99.90;;;;;;4393960;32;20471;-73
2021/08/06 07:26:27;;;;;;;1.55;0.80;;;19.60;99.90;;;;;;4396798;32;20086;-73
2021/08/06 07:28:53;;;;;;;0.40;0.40;;;19.70;99.90;;;;;;4391485;32;20089;-73
2021/08/06 07:31:18;;;;;;;0.35;0.35;;;19.90;99.90;;;;;;4395417;32;20438;-73
2021/08/06 07:33:44;;;;;;;0.30;0.30;;;20.00;99.90;;;;;;4389997;32;20065;-73
2021/08/06 07:36:09;;;;;;;0.60;0.60;;;20.20;99.90;;;;;;4391612;32;20089;-73
2021/08/06 07:38:35;;;;;;;1.50;0.50;;;20.30;99.90;;;;;;4392487;32;20124;-73
2021/08/06 07:41:00;;;;;;;0.50;0.50;;;20.40;99.90;;;;;;4393470;32;20103;-74
2021/08/06 07:43:26;;;;;;;5.93;0.90;;;20.50;99.90;;;;;;4392057;32;20073;-74
2021/08/06 07:45:51;;;;;;;0.40;0.40;;;20.70;99.90;;;;;;4393084;32;20089;-74
2021/08/06 07:48:17;;;;;;;0.50;0.50;;;20.90;99.90;;;;;;4391463;32;20509;-75
2021/08/06 07:50:42;;;;;;;6.20;0.88;;;20.90;99.90;;;;;;4394354;32;20144;-74
2021/08/06 07:53:08;;;;;;;0.37;0.37;;;21.00;99.90;;;;;;4393374;32;20083;-74
2021/08/06 07:55:34;;;;;;;3.03;1.30;;;21.10;99.90;;;;;;4391713;32;20078;-74
2021/08/06 07:57:59;;;;;;;1.08;0.43;;;21.30;99.90;;;;;;4388932;32;20613;-74
2021/08/06 08:00:25;;;;;;;0.20;0.20;;;21.40;99.90;;;;;;4395567;32;20136;-74
2021/08/06 08:02:51;;;;;;;0.88;0.68;;;21.50;99.90;;;;;;4392121;32;20070;-75
2021/08/06 08:05:20;;;;;;;2.05;0.50;;;21.60;99.90;;;;;;4391818;32;20288;-75
2021/08/06 08:07:46;;;;;;;2.55;0.85;;;21.70;99.90;;;;;;4391745;32;20791;-76
2021/08/06 08:10:12;;;;;;;0.57;0.57;;;21.90;99.90;;;;;;4391899;32;20081;-75
2021/08/06 08:12:37;;;;;;;0.25;0.25;;;21.90;99.90;;;;;;4386780;32;20093;-75
2021/08/06 08:15:04;;;;;;;0.95;0.57;;;21.90;99.90;;;;;;4392795;32;20074;-75
2021/08/06 08:17:29;;;;;;;0.37;0.37;;;22.00;99.90;;;;;;4390998;32;20170;-75
2021/08/06 08:19:55;;;;;;;0.30;0.30;;;21.90;99.90;;;;;;4393277;32;20188;-77
2021/08/06 08:22:20;;;;;;;0.35;0.35;;;22.00;99.90;;;;;;4388067;32;20212;-75
2021/08/06 08:24:46;;;;;;;0.40;0.40;;;22.10;99.90;;;;;;4386857;32;20428;-73
2021/08/06 08:27:13;;;;;;;0.35;0.32;;;22.20;99.90;;;;;;4389774;32;20569;-74
2021/08/06 08:29:38;;;;;;;0.40;0.40;;;22.20;99.90;;;;;;4384590;32;21830;-73
2021/08/06 08:32:04;;;;;;;0.43;0.40;;;22.30;99.90;;;;;;4388732;32;20077;-73
2021/08/06 08:34:29;;;;;;;0.40;0.40;;;22.20;99.90;;;;;;4387570;32;20102;-75
2021/08/06 08:36:55;;;;;;;9.77;1.35;;;22.30;99.90;;;;;;4389951;32;20128;-74
2021/08/06 08:39:21;;;;;;;0.30;0.30;;;22.40;99.90;;;;;;4386986;32;20107;-73
2021/08/06 08:41:47;;;;;;;0.30;0.30;;;22.40;99.90;;;;;;4386290;32;20649;-73
2021/08/06 08:44:13;;;;;;;0.62;0.30;;;22.50;99.90;;;;;;4390313;32;20082;-74
2021/08/06 08:46:39;;;;;;;0.37;0.37;;;22.50;99.90;;;;;;4387090;32;20221;-74
2021/08/06 08:49:05;;;;;;;0.47;0.37;;;22.50;99.90;;;;;;4390042;32;20137;-74
2021/08/06 08:51:31;;;;;;;0.35;0.35;;;22.60;99.90;;;;;;4388939;32;20108;-74
2021/08/06 08:54:00;;;;;;;1.55;0.75;;;22.70;99.90;;;;;;4387478;32;20892;-73
2021/08/06 08:56:28;;;;;;;0.13;0.13;;;22.80;99.90;;;;;;4389551;32;20526;-75
2021/08/06 08:58:54;;;;;;;0.32;0.30;;;22.90;99.90;;;;;;4390845;32;20086;-74
2021/08/06 09:01:20;;;;;;;0.25;0.25;;;22.90;99.90;;;;;;4389165;32;20138;-74
2021/08/06 09:03:48;;;;;;;0.20;0.20;;;23.00;99.90;;;;;;4389279;32;20149;-75
2021/08/06 09:06:16;;;;;;;0.50;0.25;;;22.90;99.90;;;;;;4392925;32;20453;-75
2021/08/06 09:08:42;;;;;;;0.37;0.35;;;22.80;99.90;;;;;;4389973;32;20518;-75
2021/08/06 09:11:27;;;;;;;0.20;0.20;;;22.90;99.90;;;;;;4394299;32;20132;-74
2021/08/06 09:13:53;;;;;;;0.22;0.22;;;22.90;99.90;;;;;;4384496;32;20113;-74
2021/08/06 09:16:19;;;;;;;0.52;0.52;;;22.90;99.90;;;;;;4388420;32;20089;-75
2021/08/06 09:18:45;;;;;;;0.20;0.20;;;22.80;99.90;;;;;;4379887;32;20102;-75
2021/08/06 09:21:21;;;;;;;0.30;0.30;;;22.80;99.90;;;;;;4390545;32;20129;-74
2021/08/06 09:23:57;;;;;;;0.22;0.20;;;22.90;99.90;;;;;;4384280;32;20437;-74
2021/08/06 09:26:34;;;;;;;0.43;0.43;;;22.80;99.90;;;;;;4386675;32;21026;-73
2021/08/06 09:29:03;;;;;;;1.58;0.80;;;23.00;99.90;;;;;;4385531;32;20527;-74
2021/08/06 09:31:30;;;;;;;0.20;0.20;;;23.40;99.90;;;;;;4383590;32;20083;-73
2021/08/06 09:34:23;;;;;;;0.28;0.28;;;23.70;99.90;;;;;;4380930;32;20089;-73
2021/08/06 09:37:11;;;;;;;0.20;0.20;;;23.90;99.90;;;;;;4383677;32;20910;-73
2021/08/06 09:39:43;;;;;;;0.20;0.20;;;24.20;99.90;;;;;;4372323;32;20183;-73
2021/08/06 09:42:21;;;;;;;0.40;0.40;;;24.10;99.20;;;;;;4386971;32;20078;-73
2021/08/06 09:44:58;;;;;;;0.25;0.13;;;24.20;99.90;;;;;;4385051;32;20381;-74
2021/08/06 09:47:24;;;;;;;0.40;0.40;;;24.30;99.70;;;;;;4381041;32;20098;-74
2021/08/06 09:49:53;;;;;;;1.45;1.05;;;24.50;98.00;;;;;;4383513;32;20765;-75
2021/08/06 09:52:32;;;;;;;0.20;0.20;;;24.70;98.50;;;;;;4389273;32;20401;-75
2021/08/06 09:54:58;;;;;;;1.98;0.77;;;24.70;97.10;;;;;;4386320;32;20546;-75
2021/08/06 09:57:24;;;;;;;0.50;0.37;;;25.00;96.40;;;;;;4389650;32;20066;-74
2021/08/06 09:59:54;;;;;;;0.35;0.35;;;25.00;95.60;;;;;;4385108;32;20097;-76
2021/08/06 10:02:22;;;;;;;0.20;0.20;;;24.80;95.60;;;;;;4384181;32;20448;-75
2021/08/06 10:04:57;;;;;;;0.30;0.30;;;24.90;95.50;;;;;;4386378;32;20168;-75
2021/08/06 10:07:25;;;;;;;0.30;0.30;;;24.90;96.10;;;;;;4382270;32;20082;-75
2021/08/06 10:09:51;;;;;;;0.85;0.68;;;25.10;95.10;;;;;;4390499;32;20582;-75
2021/08/06 10:12:16;;;;;;;0.43;0.30;;;24.80;95.40;;;;;;4390024;32;20090;-75
2021/08/06 10:14:42;;;;;;;0.30;0.30;;;24.40;95.10;;;;;;4388196;32;20077;-74
2021/08/06 10:17:10;;;;;;;0.30;0.30;;;24.30;96.20;;;;;;4386745;32;20415;-73
2021/08/06 10:19:35;;;;;;;0.25;0.25;;;24.80;97.00;;;;;;4385359;32;20098;-73
2021/08/06 10:22:01;;;;;;;0.20;0.20;;;25.20;96.00;;;;;;4386226;32;20087;-73
2021/08/06 10:24:27;;;;;;;9.57;0.73;;;25.60;95.70;;;;;;4385272;32;20551;-73
2021/08/06 10:26:53;;;;;;;3.97;0.52;;;26.10;95.00;;;;;;4384214;32;20065;-74
2021/08/06 10:29:21;;;;;;;0.10;0.10;;;26.10;93.70;;;;;;4385036;32;20102;-74
2021/08/06 10:32:08;;;;;;;1.52;0.70;;;26.20;91.90;;;;;;4383643;32;20381;-73
2021/08/06 10:34:34;;;;;;;2.15;0.60;;;26.40;91.60;;;;;;4373243;32;20364;-75
2021/08/06 10:36:59;;;;;;;0.32;0.10;;;26.40;92.20;;;;;;4384791;32;20181;-75
2021/08/06 10:39:41;;;;;;;0.10;0.10;;;26.50;92.50;;;;;;4390469;32;20144;-74
2021/08/06 10:42:07;;;;;;;0.10;0.10;;;26.50;90.80;;;;;;4383981;32;20571;-76
2021/08/06 10:44:56;;;;;;;1.23;0.32;;;26.80;91.30;;;;;;4389312;32;20094;-78
2021/08/06 10:47:22;;;;;;;0.13;0.13;;;27.00;89.40;;;;;;4369926;32;20065;-76
2021/08/06 10:50:13;;;;;;;0.10;0.10;;;26.90;88.80;;;;;;4383504;32;20141;-75
2021/08/06 10:52:38;;;;;;;0.08;0.08;;;26.60;86.50;;;;;;4376876;32;20098;-76
2021/08/06 10:55:16;;;;;;;0.10;0.10;;;26.70;87.20;;;;;;4394129;32;20118;-76
2021/08/06 10:57:42;;;;;;;0.10;0.10;;;27.10;87.00;;;;;;4395100;32;20061;-76
2021/08/06 11:00:08;;;;;;;0.10;0.10;;;27.40;89.40;;;;;;4394554;32;20079;-76
2021/08/06 11:02:37;;;;;;;0.32;0.32;;;27.50;85.60;;;;;;4394920;32;20071;-76
2021/08/06 11:05:31;;;;;;;0.20;0.20;;;27.60;83.60;;;;;;4393942;32;20066;-76
2021/08/06 11:07:59;;;;;;;0.10;0.10;;;27.80;85.00;;;;;;4376974;32;20094;-74
2021/08/06 11:10:48;;;;;;;0.10;0.10;;;27.80;84.60;;;;;;4381050;32;20082;-76
2021/08/06 11:13:38;;;;;;;0.62;0.10;;;28.00;85.50;;;;;;4369380;32;20535;-76
2021/08/06 11:16:06;;;;;;;0.40;0.33;;;28.00;85.50;;;;;;4374842;32;20102;-76
2021/08/06 11:18:32;;;;;;;0.15;0.15;;;28.40;83.00;;;;;;4385690;32;20190;-76
2021/08/06 11:20:59;;;;;;;0.13;0.13;;;28.20;85.50;;;;;;4394883;32;20377;-76
2021/08/06 11:23:25;;;;;;;0.10;0.10;;;28.60;84.80;;;;;;4391129;32;20152;-76
2021/08/06 11:25:53;;;;;;;0.20;0.20;;;28.60;82.80;;;;;;4390891;32;20374;-76
2021/08/06 11:28:26;;;;;;;0.17;0.17;;;28.70;82.50;;;;;;4392569;32;20062;-76
2021/08/06 11:30:52;;;;;;;0.00;0.00;;;28.70;83.00;;;;;;4392886;32;20141;-76
2021/08/06 11:33:17;;;;;;;0.10;0.10;;;28.10;82.90;;;;;;4388375;32;20177;-76
2021/08/06 11:35:45;;;;;;;0.20;0.20;;;27.80;86.20;;;;;;4390543;32;20090;-75
2021/08/06 11:38:13;;;;;;;0.00;0.00;;;28.10;85.90;;;;;;4389355;32;20437;-75
2021/08/06 11:40:41;;;;;;;0.10;0.10;;;28.50;84.20;;;;;;4389451;32;20081;-77
2021/08/06 11:43:12;;;;;;;0.20;0.20;;;29.20;85.20;;;;;;4391206;32;20103;-75
2021/08/06 11:45:38;;;;;;;0.10;0.10;;;29.50;80.90;;;;;;4392398;32;20066;-75
2021/08/06 11:48:04;;;;;;;0.10;0.10;;;29.10;79.30;;;;;;4390195;32;20070;-75
2021/08/06 11:50:45;;;;;;;0.10;0.10;;;29.00;75.00;;;;;;4388777;32;20774;-75
2021/08/06 11:53:14;;;;;;;0.20;0.20;;;29.10;73.70;;;;;;4387693;32;20193;-75
2021/08/06 11:55:40;;;;;;;1.35;0.43;;;29.80;74.10;;;;;;4388729;32;20752;-75
2021/08/06 11:58:06;;;;;;;0.20;0.20;;;29.60;74.10;;;;;;4392455;32;20153;-76
2021/08/06 12:00:37;;;;;;;0.32;0.32;;;29.20;75.40;;;;;;4395470;32;20086;-75
2021/08/06 12:03:13;;;;;;;0.13;0.13;;;29.40;78.10;;;;;;4387112;32;20452;-76
2021/08/06 12:05:49;;;;;;;0.30;0.30;;;29.40;78.00;;;;;;4390695;32;20163;-75
2021/08/06 12:08:19;;;;;;;0.10;0.10;;;29.70;77.10;;;;;;4390586;32;20091;-76
2021/08/06 12:10:47;;;;;;;0.17;0.17;;;30.20;74.70;;;;;;4390774;32;20129;-76
2021/08/06 12:13:16;;;;;;;0.10;0.10;;;30.50;74.80;;;;;;4391185;32;20105;-76
2021/08/06 12:15:41;;;;;;;0.10;0.10;;;30.60;75.00;;;;;;4385164;32;20078;-76
2021/08/06 12:18:19;;;;;;;0.20;0.20;;;31.00;74.00;;;;;;4386992;32;20413;-76
2021/08/06 12:20:48;;;;;;;1.00;0.60;;;30.80;72.50;;;;;;4387844;32;20098;-76
2021/08/06 12:23:17;;;;;;;0.20;0.20;;;30.70;73.60;;;;;;4389734;32;20066;-77
2021/08/06 12:26:03;;;;;;;0.10;0.10;;;30.00;75.70;;;;;;4386694;32;20094;-75
2021/08/06 12:28:30;;;;;;;0.17;0.15;;;30.10;74.90;;;;;;4373578;32;20062;-75
2021/08/06 12:31:31;;;;;;;0.30;0.30;;;30.60;75.40;;;;;;4387944;32;20424;-75
2021/08/06 12:34:13;;;;;;;0.20;0.20;;;30.80;73.60;;;;;;4379738;32;20087;-75
2021/08/06 12:36:51;;;;;;;0.30;0.25;;;29.80;76.90;;;;;;4392772;32;20076;-75
2021/08/06 12:39:17;;;;;;;0.28;0.28;;;30.30;75.30;;;;;;4392521;32;20081;-75
2021/08/06 12:41:45;;;;;;;0.37;0.30;;;30.40;72.30;;;;;;4388931;32;20174;-75
2021/08/06 12:44:17;;;;;;;0.20;0.20;;;30.50;72.40;;;;;;4389404;32;20066;-75
2021/08/06 12:46:56;;;;;;;6.03;1.20;;;30.90;73.20;;;;;;4386350;32;20089;-75
2021/08/06 12:49:27;;;;;;;0.10;0.10;;;31.40;72.00;;;;;;4389514;32;20082;-76
2021/08/06 12:51:59;;;;;;;0.13;0.13;;;31.50;71.00;;;;;;4390589;32;20182;-76